This is the latest recevied weather packets stored in our database for station/object IV3CGM-13. If no packets are shown the sender has not sent any weather packets the latest 10 day(s).
| Time | Temp. | Humidity | Pressure | Rain* | Wind** | Luminosity | Snow |
|---|---|---|---|---|---|---|---|
| 1777736389 | 22.78° C | 34% | 1020 hPa | 0 mm | - | 283 W/m² | - |
| 1777735652 | 23.33° C | 33% | 1020.1 hPa | 0 mm | - | 327 W/m² | - |
| 1777734951 | 22.78° C | 32% | 1020.2 hPa | 0 mm | - | 364 W/m² | - |
| 1777734264 | 22.78° C | 33% | 1020.3 hPa | 0 mm | - | 402 W/m² | - |
| 1777733576 | 22.78° C | 33% | 1020.4 hPa | 0 mm | - | 441 W/m² | - |
| 1777732876 | 22.78° C | 31% | 1020.5 hPa | 0 mm | - | 480 W/m² | - |
| 1777732139 | 22.78° C | 31% | 1020.7 hPa | 0 mm | - | 521 W/m² | - |
| 1777731426 | 22.78° C | 31% | 1020.8 hPa | 0 mm | - | 562 W/m² | - |
| 1777730739 | 22.22° C | 33% | 1021 hPa | 0 mm | - | 590 W/m² | - |
| 1777730051 | 22.22° C | 35% | 1021.2 hPa | 0 mm | - | 620 W/m² | - |
| 1777729364 | 22.78° C | 32% | 1021.4 hPa | 0 mm | - | 647 W/m² | - |
| 1777728627 | 22.78° C | 32% | 1021.6 hPa | 0 mm | - | 676 W/m² | - |
| 1777727926 | 22.22° C | 33% | 1021.7 hPa | 0 mm | - | 699 W/m² | - |
| 1777727239 | 22.78° C | 31% | 1021.9 hPa | 0 mm | - | 723 W/m² | - |
| 1777725863 | 21.67° C | 33% | 1022.1 hPa | 0 mm | - | 759 W/m² | - |
| 1777725127 | 21.67° C | 31% | 1022.3 hPa | 0 mm | - | 783 W/m² | - |
| 1777724425 | 21.67° C | 32% | 1022.5 hPa | 0 mm | - | 804 W/m² | - |
| 1777723736 | 21.67° C | 33% | 1022.6 hPa | 0 mm | - | 816 W/m² | - |
| 1777723048 | 21.67° C | 32% | 1022.6 hPa | 0 mm | - | 820 W/m² | - |
| 1777722361 | 21.11° C | 32% | 1022.8 hPa | 0 mm | - | 672 W/m² | - |
| 1777721624 | 21.11° C | 34% | 1023 hPa | 0 mm | - | 840 W/m² | - |
| 1777720923 | 21.11° C | 34% | 1023.1 hPa | 0 mm | - | 830 W/m² | - |
| 1777720236 | 20.56° C | 35% | 1023.2 hPa | 0 mm | - | 856 W/m² | - |
| 1777719549 | 20° C | 36% | 1023.4 hPa | 0 mm | - | 857 W/m² | - |
| 1777718861 | 20° C | 34% | 1023.4 hPa | 0 mm | - | 861 W/m² | - |
* Rain latest hour (hover to see other rain measurements)
** Current wind speed in m/s (hover to see current wind gust speed)